createdAt,value
2023-03-02T00:01:10.807Z,143287.56
2023-03-02T00:03:41.000Z,143212.78
2023-03-02T00:06:09.634Z,143311.69
2023-03-02T00:08:38.127Z,143343.03
2023-03-02T00:11:05.343Z,143365.94
2023-03-02T00:13:35.447Z,143378.03
2023-03-02T00:16:02.597Z,143362.31
2023-03-02T00:18:29.756Z,143304.41
2023-03-02T00:20:56.750Z,143333.41
2023-03-02T00:23:23.744Z,143315.31
2023-03-02T00:25:50.863Z,143310.47
2023-03-02T00:28:17.872Z,143294.78
2023-03-02T00:30:44.921Z,143256.22
2023-03-02T00:33:11.897Z,143335.78
2023-03-02T00:35:40.336Z,143270.69
2023-03-02T00:38:08.214Z,143314.09
2023-03-02T00:40:36.098Z,143337.03
2023-03-02T00:43:03.606Z,143326.13
2023-03-02T00:45:30.765Z,143337.03
2023-03-02T00:47:58.574Z,143361.13
2023-03-02T00:50:25.660Z,143378.03
2023-03-02T00:52:52.677Z,143328.56
2023-03-02T00:55:20.002Z,143315.31
2023-03-02T00:57:54.933Z,143302.03
2023-03-02T01:00:28.520Z,143296.03
2023-03-02T01:02:58.675Z,143275.50
2023-03-02T01:05:25.856Z,143200.78
2023-03-02T01:07:52.864Z,143275.50
2023-03-02T01:10:20.467Z,143259.84
2023-03-02T01:12:47.459Z,143235.69
2023-03-02T01:15:14.555Z,143140.47
2023-03-02T01:17:42.881Z,143183.88
2023-03-02T01:20:11.519Z,143211.59
2023-03-02T01:22:38.852Z,143222.44
2023-03-02T01:25:06.300Z,143206.78
2023-03-02T01:27:33.307Z,143212.78
2023-03-02T01:30:00.357Z,143191.09
2023-03-02T01:32:27.433Z,143210.41
2023-03-02T01:34:54.949Z,143188.69
2023-03-02T01:37:23.058Z,143205.59
2023-03-02T01:39:50.771Z,143075.41
2023-03-02T01:42:18.632Z,143118.75
2023-03-02T01:44:48.612Z,143018.75
2023-03-02T01:47:23.065Z,143128.44
2023-03-02T01:50:27.069Z,143113.94
2023-03-02T01:52:58.084Z,143066.97
2023-03-02T01:55:29.177Z,143101.94
2023-03-02T01:57:57.153Z,143075.41
2023-03-02T02:00:28.267Z,143024.81
2023-03-02T02:03:08.625Z,143072.97
2023-03-02T02:05:39.348Z,143100.69
2023-03-02T02:08:07.349Z,143099.50
2023-03-02T02:10:35.374Z,143106.75
2023-03-02T02:13:02.922Z,143107.94
2023-03-02T02:15:30.320Z,143101.94
2023-03-02T02:17:57.358Z,143123.63
2023-03-02T02:20:39.292Z,143111.56
2023-03-02T02:27:18.515Z,143051.31
2023-03-02T02:29:51.435Z,143135.66
2023-03-02T02:32:28.065Z,143152.53
2023-03-02T02:35:07.343Z,143145.28
2023-03-02T02:37:41.517Z,143148.91
2023-03-02T02:40:42.027Z,143127.22
2023-03-02T02:43:16.375Z,143153.72
2023-03-02T02:45:43.875Z,143123.63
2023-03-02T02:48:16.172Z,143124.81
2023-03-02T02:50:44.260Z,143122.38
2023-03-02T02:53:18.184Z,143139.28
2023-03-02T02:55:48.276Z,143126.00
2023-03-02T02:58:42.187Z,143112.75
2023-03-02T03:01:17.717Z,143039.25
2023-03-02T03:03:57.429Z,143106.75
2023-03-02T03:06:38.175Z,143094.66
2023-03-02T03:09:07.824Z,143027.19
2023-03-02T03:11:43.407Z,143099.50
2023-03-02T03:14:14.128Z,143099.50
2023-03-02T03:16:43.894Z,143058.53
2023-03-02T03:19:21.333Z,143079.03
2023-03-02T03:21:51.450Z,143012.75
2023-03-02T03:24:19.899Z,143082.59
2023-03-02T03:26:47.522Z,143039.25
2023-03-02T03:29:16.411Z,143111.56
2023-03-02T03:31:43.786Z,143109.13
2023-03-02T03:38:24.977Z,143106.75
2023-03-02T03:40:52.241Z,143128.44
2023-03-02T03:43:32.066Z,143017.56
2023-03-02T03:49:07.260Z,142904.34
2023-03-02T03:51:55.239Z,142587.78
2023-03-02T03:54:27.462Z,142918.78
2023-03-02T03:56:54.916Z,143101.94
2023-03-02T03:59:24.520Z,143186.28
2023-03-02T04:02:00.640Z,143217.63
2023-03-02T04:04:48.051Z,143220.03
2023-03-02T04:07:17.618Z,143200.78
2023-03-02T04:09:46.296Z,143191.09
2023-03-02T04:12:14.981Z,143191.09
2023-03-02T04:14:50.209Z,143181.44
2023-03-02T04:17:17.478Z,143136.84
2023-03-02T04:19:47.017Z,143133.25
2023-03-02T04:22:16.175Z,143112.75
2023-03-02T04:24:43.847Z,143116.38
2023-03-02T04:27:11.713Z,143065.78
2023-03-02T04:29:39.044Z,143101.94
2023-03-02T04:32:07.772Z,143080.22
2023-03-02T04:34:37.575Z,143076.59
2023-03-02T04:37:04.721Z,143075.41
2023-03-02T04:39:31.839Z,143094.66
2023-03-02T04:41:59.029Z,143087.47
2023-03-02T04:44:26.133Z,143103.13
2023-03-02T04:46:53.325Z,143099.50
2023-03-02T04:49:20.524Z,143077.78
2023-03-02T04:51:49.485Z,143082.59
2023-03-02T04:54:20.916Z,143068.16
2023-03-02T04:56:51.542Z,143044.06
2023-03-02T04:59:20.984Z,143051.31
2023-03-02T05:01:48.223Z,143044.06
2023-03-02T05:04:15.671Z,143007.94
2023-03-02T05:06:43.097Z,143044.06
2023-03-02T05:09:10.890Z,143048.88
2023-03-02T05:11:38.507Z,143062.16
2023-03-02T05:14:07.542Z,143072.97
2023-03-02T05:16:37.199Z,143063.34
2023-03-02T05:19:07.006Z,143066.97
2023-03-02T05:21:34.214Z,143065.78
2023-03-02T05:24:01.343Z,143039.25
2023-03-02T05:26:28.586Z,142965.78
2023-03-02T05:28:56.034Z,143022.38
2023-03-02T05:31:29.312Z,142998.31
2023-03-02T05:33:56.362Z,142993.47
2023-03-02T05:36:23.630Z,142991.06
2023-03-02T05:38:50.672Z,142981.41
2023-03-02T05:41:17.988Z,142979.03
2023-03-02T05:43:45.064Z,142952.53
2023-03-02T05:46:12.148Z,143011.56
2023-03-02T05:48:39.223Z,143001.91
2023-03-02T05:51:06.268Z,142916.41
2023-03-02T06:01:23.834Z,142584.16
2023-03-02T06:03:50.922Z,142716.50
2023-03-02T06:06:18.001Z,143034.44
2023-03-02T06:08:45.071Z,143036.81
2023-03-02T06:11:12.823Z,142980.22
2023-03-02T06:13:40.382Z,143029.63
2023-03-02T06:16:08.175Z,143044.06
2023-03-02T06:18:36.449Z,142976.59
2023-03-02T06:21:03.918Z,143059.72
2023-03-02T06:23:31.312Z,143076.59
2023-03-02T06:25:58.913Z,143065.78
2023-03-02T06:28:26.594Z,143109.13
2023-03-02T06:30:53.800Z,143050.09
2023-03-02T06:33:21.247Z,143127.22
2023-03-02T06:35:49.067Z,143160.97
2023-03-02T06:38:16.709Z,143203.16
2023-03-02T06:40:43.941Z,143200.78
2023-03-02T06:43:11.033Z,143205.59
2023-03-02T06:45:38.353Z,143211.59
2023-03-02T06:48:06.251Z,143286.34
2023-03-02T06:50:33.908Z,143256.22
2023-03-02T06:53:01.469Z,143323.75
2023-03-02T06:55:28.484Z,143378.03
2023-03-02T06:57:55.585Z,143435.94
2023-03-02T07:00:27.948Z,143441.97
2023-03-02T07:02:56.125Z,143533.66
2023-03-02T07:05:24.340Z,143566.25
2023-03-02T07:07:51.821Z,143569.88
2023-03-02T07:10:19.281Z,143574.69
2023-03-02T07:12:46.339Z,143606.09
2023-03-02T07:15:14.298Z,143620.56
2023-03-02T07:17:43.590Z,143677.34
2023-03-02T07:20:12.942Z,143712.38
2023-03-02T07:22:40.253Z,143668.88
2023-03-02T07:25:08.523Z,143741.34
2023-03-02T07:27:35.658Z,143687.00
2023-03-02T07:30:04.128Z,143778.75
2023-03-02T07:32:31.545Z,143816.25
2023-03-02T07:34:58.631Z,143842.78
2023-03-02T07:37:25.884Z,143864.53
2023-03-02T07:39:52.932Z,143877.84
2023-03-02T07:42:20.008Z,143905.63
2023-03-02T07:44:54.489Z,143893.56
2023-03-02T07:47:21.984Z,143835.56
2023-03-02T07:49:49.024Z,143947.94
2023-03-02T07:52:16.154Z,143982.97
2023-03-02T07:54:43.240Z,144008.38
2023-03-02T07:57:10.286Z,144034.97
2023-03-02T07:59:37.266Z,144051.91
2023-03-02T08:02:04.319Z,144090.56
2023-03-02T08:04:31.725Z,144107.50
2023-03-02T08:06:58.789Z,144138.97
2023-03-02T08:09:25.775Z,144153.47
2023-03-02T08:11:52.852Z,144178.88
2023-03-02T08:14:19.837Z,144203.06
2023-03-02T08:16:46.880Z,144220.00
2023-03-02T08:19:13.934Z,144244.19
2023-03-02T08:21:41.937Z,144278.03
2023-03-02T08:24:09.880Z,144297.44
2023-03-02T08:26:37.323Z,144338.56
2023-03-02T08:29:05.545Z,144322.81
2023-03-02T08:31:33.452Z,144339.75
2023-03-02T08:34:00.798Z,144396.66
2023-03-02T08:36:27.944Z,144400.25
2023-03-02T08:38:55.097Z,144353.06
2023-03-02T08:41:23.432Z,144424.50
2023-03-02T08:43:53.942Z,144448.69
2023-03-02T08:46:21.695Z,144359.09
2023-03-02T08:48:51.138Z,144455.97
2023-03-02T08:51:24.407Z,144466.84
2023-03-02T08:53:55.016Z,144486.22
2023-03-02T08:56:23.788Z,144495.88
2023-03-02T08:58:52.555Z,144514.06
2023-03-02T09:01:25.669Z,144524.97
2023-03-02T09:03:52.775Z,144477.72
2023-03-02T09:06:20.575Z,144575.81
2023-03-02T09:08:48.034Z,144511.66
2023-03-02T09:11:15.581Z,144602.47
2023-03-02T09:13:42.704Z,144653.34
2023-03-02T09:16:10.290Z,144667.88
2023-03-02T09:18:37.809Z,144699.41
2023-03-02T09:21:05.239Z,144666.66
2023-03-02T09:23:33.270Z,144704.25
2023-03-02T09:26:00.446Z,144723.63
2023-03-02T09:28:27.486Z,144724.88
2023-03-02T09:30:59.830Z,144716.38
2023-03-02T09:33:27.884Z,144774.56
2023-03-02T09:35:54.968Z,144818.16
2023-03-02T09:38:22.114Z,144847.28
2023-03-02T09:41:01.210Z,144882.38
2023-03-02T09:44:19.251Z,144876.34
2023-03-02T09:46:54.077Z,144918.75
2023-03-02T09:49:55.209Z,144923.59
2023-03-02T09:52:30.304Z,144973.31
2023-03-02T09:55:12.081Z,144951.53
2023-03-02T09:57:39.880Z,144980.59
2023-03-02T10:00:24.410Z,144944.22
2023-03-02T10:03:11.343Z,144985.47
2023-03-02T10:05:46.548Z,145041.22
2023-03-02T10:08:22.876Z,145030.34
2023-03-02T10:11:10.747Z,145128.59
2023-03-02T10:13:47.679Z,145160.09
2023-03-02T10:16:37.207Z,145145.56
2023-03-02T10:19:15.035Z,145179.53
2023-03-02T10:21:51.433Z,145179.53
2023-03-02T10:24:28.702Z,145203.78
2023-03-02T10:27:11.550Z,145191.66
2023-03-02T10:30:08.059Z,145247.50
2023-03-02T10:32:43.489Z,145263.31
2023-03-02T10:35:20.978Z,145186.78
2023-03-02T10:37:48.846Z,145265.75
2023-03-02T10:40:41.496Z,145291.22
2023-03-02T10:43:17.899Z,145224.44
2023-03-02T10:45:45.378Z,145243.84
2023-03-02T10:48:14.512Z,145271.81
2023-03-02T10:50:44.191Z,145307.00
2023-03-02T10:53:17.620Z,145344.63
2023-03-02T10:55:46.999Z,145373.75
2023-03-02T10:58:30.402Z,145407.75
2023-03-02T11:01:02.255Z,145422.31
2023-03-02T11:03:30.078Z,145459.97
2023-03-02T11:06:00.420Z,145475.78
2023-03-02T11:08:28.127Z,145495.19
2023-03-02T11:11:04.062Z,145484.28
2023-03-02T11:13:32.928Z,145483.03
2023-03-02T11:16:02.680Z,145468.47
2023-03-02T11:18:50.601Z,145500.03
2023-03-02T11:21:25.114Z,145446.59
2023-03-02T11:24:14.032Z,145429.63
2023-03-02T11:26:47.426Z,145463.63
2023-03-02T11:29:28.912Z,145517.06
2023-03-02T11:32:03.881Z,145524.31
2023-03-02T11:34:39.868Z,145526.78
2023-03-02T11:37:34.638Z,145548.66
2023-03-02T11:40:22.962Z,145502.50
2023-03-02T11:43:29.502Z,145459.97
2023-03-02T11:46:13.964Z,144842.41
2023-03-02T11:48:51.041Z,145452.69
2023-03-02T11:51:28.106Z,145178.28
2023-03-02T11:54:28.914Z,145173.44
2023-03-02T11:56:57.848Z,145143.16
2023-03-02T11:59:28.888Z,145157.69
2023-03-02T12:05:03.291Z,145541.34
2023-03-02T12:07:30.676Z,145480.63
2023-03-02T12:10:23.962Z,145541.34
2023-03-02T12:13:03.301Z,145551.06
2023-03-02T12:15:38.673Z,145599.66
2023-03-02T12:18:22.268Z,145609.38
2023-03-02T12:21:02.349Z,145628.78
2023-03-02T12:23:30.365Z,145650.66
2023-03-02T12:26:06.558Z,145657.97
2023-03-02T12:28:39.501Z,145677.41
2023-03-02T12:31:11.077Z,145684.72
2023-03-02T12:33:45.440Z,145688.31
2023-03-02T12:36:22.148Z,145689.56
2023-03-02T12:39:12.311Z,145664.03
2023-03-02T12:42:07.189Z,145689.56
2023-03-02T12:44:52.463Z,145701.75
2023-03-02T12:47:27.106Z,145711.50
2023-03-02T12:50:01.857Z,145713.91
2023-03-02T12:52:35.183Z,145694.44
2023-03-02T12:55:19.877Z,145700.53
2023-03-02T12:57:50.758Z,145689.56
2023-03-02T13:00:21.137Z,145650.66
2023-03-02T13:02:51.645Z,145599.66
2023-03-02T13:05:22.396Z,145643.41
2023-03-02T13:07:58.898Z,145623.94
2023-03-02T13:10:30.677Z,145619.06
2023-03-02T13:12:59.952Z,145620.31
2023-03-02T13:15:27.154Z,145614.22
2023-03-02T13:17:59.560Z,145623.94
2023-03-02T13:20:29.129Z,145631.25
2023-03-02T13:22:56.561Z,145627.59
2023-03-02T13:25:29.211Z,145632.44
2023-03-02T13:28:00.722Z,145647.03
2023-03-02T13:30:31.033Z,145597.19
2023-03-02T13:33:21.001Z,145650.66
2023-03-02T13:35:48.287Z,145563.22
2023-03-02T13:38:19.579Z,145597.19
2023-03-02T13:40:49.456Z,145636.09
2023-03-02T13:43:39.370Z,145665.25
2023-03-02T13:46:26.878Z,145682.25
2023-03-02T13:49:09.632Z,145592.34
2023-03-02T13:52:20.707Z,145523.13
2023-03-02T13:54:56.116Z,145565.66
2023-03-02T14:04:36.255Z,145457.56
2023-03-02T14:07:03.718Z,145654.31
2023-03-02T14:09:30.707Z,145687.13
2023-03-02T14:11:58.539Z,145668.91
2023-03-02T14:14:27.676Z,145667.69
2023-03-02T14:16:54.738Z,145675.00
2023-03-02T14:19:21.831Z,145651.88
2023-03-02T14:21:48.904Z,145667.69
2023-03-02T14:24:16.016Z,145667.69
2023-03-02T14:26:49.875Z,145597.19
2023-03-02T14:29:22.754Z,145653.13
2023-03-02T14:31:49.838Z,145642.16
2023-03-02T14:34:17.618Z,145650.66
2023-03-02T14:36:47.946Z,145668.91
2023-03-02T14:39:24.043Z,145572.91
2023-03-02T14:41:54.278Z,145668.91
2023-03-02T14:44:22.515Z,145636.09
2023-03-02T14:46:49.638Z,145636.09
2023-03-02T14:49:16.762Z,145657.97
2023-03-02T14:51:48.885Z,145675.00
2023-03-02T14:54:19.773Z,145668.91
2023-03-02T14:56:49.290Z,145670.09
2023-03-02T14:59:18.446Z,145671.34
2023-03-02T15:01:45.499Z,145660.38
2023-03-02T15:04:12.532Z,145640.97
2023-03-02T15:06:42.207Z,145622.72
2023-03-02T15:09:10.871Z,145562.00
2023-03-02T15:11:38.051Z,145568.06
2023-03-02T15:14:05.154Z,145640.97
2023-03-02T15:16:32.177Z,145617.88
2023-03-02T15:18:59.365Z,145626.38
2023-03-02T15:21:26.372Z,145616.69
2023-03-02T15:23:53.472Z,145572.91
2023-03-02T15:26:20.556Z,145617.88
2023-03-02T15:28:52.729Z,145572.91
2023-03-02T15:31:21.157Z,145606.97
2023-03-02T15:33:48.736Z,145586.28
2023-03-02T15:36:15.771Z,145594.78
2023-03-02T15:38:42.846Z,145548.66
2023-03-02T15:41:13.679Z,145585.09
2023-03-02T15:43:41.088Z,145555.91
2023-03-02T15:46:09.392Z,145555.91
2023-03-02T15:48:37.467Z,145551.06
2023-03-02T15:51:06.935Z,145546.19
2023-03-02T15:53:38.679Z,145529.22
2023-03-02T15:56:07.237Z,145502.50
2023-03-02T15:58:35.203Z,145507.34
2023-03-02T16:01:10.309Z,145495.19
2023-03-02T16:03:38.355Z,145495.19
2023-03-02T16:06:05.879Z,145440.53
2023-03-02T16:08:32.912Z,145427.19
2023-03-02T16:11:02.447Z,145440.53
2023-03-02T16:13:30.461Z,145449.03
2023-03-02T16:16:01.549Z,145412.63
2023-03-02T16:18:28.641Z,145388.34
2023-03-02T16:20:55.685Z,145371.34
2023-03-02T16:23:23.528Z,145305.78
2023-03-02T16:25:51.276Z,145308.22
2023-03-02T16:28:19.999Z,145362.84
2023-03-02T16:30:47.421Z,145280.31
2023-03-02T16:33:17.738Z,145300.91
2023-03-02T16:35:45.217Z,145281.50
2023-03-02T16:38:12.338Z,145274.25
2023-03-02T16:40:40.102Z,145254.78
2023-03-02T16:43:10.371Z,145231.69
2023-03-02T16:45:37.606Z,145215.94
2023-03-02T16:48:05.604Z,145203.78
2023-03-02T16:50:34.944Z,145143.16
2023-03-02T16:53:02.141Z,145150.41
2023-03-02T16:55:29.722Z,145070.38
2023-03-02T16:57:56.802Z,145150.41
2023-03-02T17:00:25.296Z,145082.47
2023-03-02T17:02:53.953Z,145029.13
2023-03-02T17:05:21.737Z,145107.97
2023-03-02T17:07:49.541Z,145063.06
2023-03-02T17:10:21.843Z,145086.13
2023-03-02T17:12:48.952Z,145026.69
2023-03-02T17:15:16.225Z,144978.16
2023-03-02T17:17:43.246Z,144927.25
2023-03-02T17:20:12.018Z,144920.00
2023-03-02T17:22:39.291Z,144790.28
2023-03-02T17:25:06.617Z,144769.72
2023-03-02T17:27:33.821Z,144785.44
2023-03-02T17:30:00.808Z,144799.97
2023-03-02T17:32:27.870Z,144747.88
2023-03-02T17:34:54.939Z,144781.78
2023-03-02T17:37:21.986Z,144740.59
2023-03-02T17:39:50.844Z,144667.88
2023-03-02T17:42:18.654Z,144675.19
2023-03-02T17:44:45.793Z,144684.88
2023-03-02T17:47:15.600Z,144612.16
2023-03-02T17:49:46.470Z,144580.66
2023-03-02T17:52:15.294Z,144560.06
2023-03-02T17:54:43.490Z,144624.28
2023-03-02T17:57:13.646Z,144551.63
2023-03-02T17:59:40.761Z,144602.47
2023-03-02T18:02:07.897Z,144481.38
2023-03-02T18:04:35.062Z,144478.97
2023-03-02T18:07:02.392Z,144422.06
2023-03-02T18:09:29.453Z,144510.44
2023-03-02T18:11:56.453Z,144481.38
2023-03-02T18:14:28.234Z,144468.03
2023-03-02T18:16:55.335Z,144382.09
2023-03-02T18:19:22.762Z,144353.06
2023-03-02T18:21:49.776Z,144372.44
2023-03-02T18:24:16.825Z,144320.41
2023-03-02T18:26:44.039Z,144363.94
2023-03-02T18:29:11.048Z,144343.41
2023-03-02T18:31:38.501Z,144382.09
2023-03-02T18:34:05.940Z,144403.91
2023-03-02T18:36:33.163Z,144374.88
2023-03-02T18:39:00.835Z,144397.84
2023-03-02T18:41:27.899Z,144389.38
2023-03-02T18:43:55.007Z,144379.69
2023-03-02T18:46:24.660Z,144377.25
2023-03-02T18:48:52.791Z,144363.94
2023-03-02T18:51:21.686Z,144293.78
2023-03-02T18:53:49.630Z,144307.09
2023-03-02T18:56:17.723Z,144275.63
2023-03-02T18:58:45.702Z,144282.88
2023-03-02T19:01:13.493Z,144199.41
2023-03-02T19:03:41.995Z,144213.91
2023-03-02T19:06:09.154Z,144209.09
2023-03-02T19:08:36.421Z,144228.44
2023-03-02T19:11:04.901Z,144204.25
2023-03-02T19:13:32.554Z,144108.72
2023-03-02T19:16:01.827Z,144120.81
2023-03-02T19:18:29.761Z,144086.94
2023-03-02T19:20:57.590Z,144084.53
2023-03-02T19:23:25.174Z,144055.50
2023-03-02T19:25:53.124Z,144026.50
2023-03-02T19:28:21.596Z,144005.94
2023-03-02T19:30:50.373Z,144002.34
2023-03-02T19:33:17.863Z,143893.56
2023-03-02T19:35:44.984Z,143927.38
2023-03-02T19:38:12.696Z,143939.47
2023-03-02T19:40:40.146Z,143921.34
2023-03-02T19:43:07.691Z,143866.97
2023-03-02T19:45:35.842Z,143892.31
2023-03-02T19:48:05.950Z,143877.84
2023-03-02T19:50:33.285Z,143885.09
2023-03-02T19:53:00.512Z,143891.13
2023-03-02T19:55:27.797Z,143904.41
2023-03-02T19:58:00.914Z,143833.13
2023-03-02T20:00:36.212Z,143862.16
2023-03-02T20:03:06.071Z,143840.38
2023-03-02T20:05:33.173Z,143800.50
2023-03-02T20:08:00.285Z,143794.50
2023-03-02T20:10:38.256Z,143696.66
2023-03-02T20:13:06.945Z,143680.97
2023-03-02T20:15:38.099Z,143671.31
2023-03-02T20:18:07.616Z,143724.41
2023-03-02T20:20:35.214Z,143649.56
2023-03-02T20:23:03.860Z,143639.91
2023-03-02T20:25:30.980Z,143664.03
2023-03-02T20:27:58.726Z,143695.44
2023-03-02T20:30:33.750Z,143693.00
2023-03-02T20:33:01.982Z,143685.78
2023-03-02T20:35:32.430Z,143684.56
2023-03-02T20:38:02.381Z,143635.09
2023-03-02T20:40:29.634Z,143678.53
2023-03-02T20:42:57.062Z,143642.31
2023-03-02T20:45:24.583Z,143616.97
2023-03-02T20:47:51.913Z,143555.41
2023-03-02T20:50:23.804Z,143589.19
2023-03-02T20:57:05.296Z,143572.31
2023-03-02T21:04:36.848Z,143557.78
2023-03-02T21:20:03.362Z,143100.69
2023-03-02T21:22:30.410Z,143461.25
2023-03-02T21:24:57.674Z,143454.03
2023-03-02T21:27:24.764Z,143487.81
2023-03-02T21:29:52.344Z,143473.34
2023-03-02T21:32:19.466Z,143458.88
2023-03-02T21:34:46.494Z,143375.59
2023-03-02T21:37:13.723Z,143363.56
2023-03-02T21:39:40.781Z,143416.59
2023-03-02T21:42:07.849Z,143385.25
2023-03-02T21:44:34.865Z,143359.94
2023-03-02T21:51:15.298Z,143330.97
2023-03-02T21:53:42.339Z,143323.75
2023-03-02T21:56:15.866Z,143408.16
2023-03-02T21:58:46.285Z,143374.41
2023-03-02T22:01:15.023Z,143337.03
2023-03-02T22:03:42.974Z,143369.59
2023-03-02T22:06:17.116Z,143379.22
2023-03-02T22:08:44.504Z,143386.47
2023-03-02T22:11:19.330Z,143347.84
2023-03-02T22:13:48.354Z,143351.47
2023-03-02T22:16:18.832Z,143357.50
2023-03-02T22:18:48.449Z,143347.84
2023-03-02T22:21:36.847Z,143333.41
2023-03-02T22:24:09.785Z,143343.03
2023-03-02T22:26:49.520Z,143338.22
2023-03-02T22:29:16.478Z,143320.13
2023-03-02T22:31:47.349Z,143310.47
2023-03-02T22:34:22.936Z,143318.94
2023-03-02T22:36:50.031Z,143309.28
2023-03-02T22:39:26.839Z,143264.66
2023-03-02T22:42:06.161Z,143305.66
2023-03-02T22:44:34.128Z,143286.34
2023-03-02T22:47:02.442Z,143282.75
2023-03-02T22:49:29.858Z,143270.69
2023-03-02T22:52:01.679Z,143265.84
2023-03-02T22:54:37.538Z,143268.28
2023-03-02T22:57:23.250Z,143261.03
2023-03-02T22:59:50.268Z,143246.56
2023-03-02T23:02:22.196Z,143241.75
2023-03-02T23:04:50.128Z,143138.09
2023-03-02T23:07:22.155Z,143220.03
2023-03-02T23:09:49.336Z,143209.16
2023-03-02T23:12:26.087Z,142988.66
2023-03-02T23:14:55.247Z,143203.16
2023-03-02T23:17:35.776Z,143280.31
2023-03-02T23:20:05.305Z,143236.94
2023-03-02T23:22:32.344Z,143212.78
2023-03-02T23:24:59.395Z,143201.97
2023-03-02T23:27:26.495Z,143012.75
2023-03-02T23:29:54.135Z,143182.69
2023-03-02T23:32:21.339Z,143162.16
2023-03-02T23:34:48.487Z,143169.41
2023-03-02T23:37:16.151Z,143140.47
2023-03-02T23:39:45.930Z,143153.72
2023-03-02T23:42:13.163Z,143145.28
2023-03-02T23:44:40.183Z,143136.84
2023-03-02T23:47:07.463Z,143146.53
2023-03-02T23:49:34.464Z,143130.84
2023-03-02T23:52:01.620Z,143128.44
2023-03-02T23:54:28.683Z,143124.81
2023-03-02T23:56:55.888Z,143111.56
2023-03-02T23:59:23.091Z,143106.75
